createdAt,value
2024-01-26T07:04:04.507Z,19.50
2024-01-26T07:06:32.724Z,19.40
2024-01-26T07:09:00.834Z,19.30
2024-01-26T07:21:24.053Z,19.50
2024-01-26T07:23:52.156Z,19.30
2024-01-26T07:26:21.148Z,19.30
2024-01-26T07:28:49.313Z,19.30
2024-01-26T07:31:17.304Z,19.30
2024-01-26T07:33:45.675Z,19.20
2024-01-26T07:36:15.359Z,19.20
2024-01-26T07:38:43.449Z,19.20
2024-01-26T07:41:11.440Z,19.20
2024-01-26T07:43:39.438Z,19.10
2024-01-26T07:46:07.499Z,19.10
2024-01-26T07:48:35.614Z,19.10
2024-01-26T07:51:03.683Z,19.10
2024-01-26T07:53:33.286Z,19.10
2024-01-26T07:56:03.010Z,19.10
2024-01-26T07:58:32.276Z,19.10
2024-01-26T08:01:01.015Z,19.10
2024-01-26T08:03:29.400Z,19.10
2024-01-26T08:05:57.537Z,19.10
2024-01-26T08:08:25.647Z,19.00
2024-01-26T08:10:55.230Z,19.00
2024-01-26T08:13:23.659Z,19.00
2024-01-26T08:15:51.871Z,19.00
2024-01-26T08:18:20.054Z,19.00
2024-01-26T08:20:48.163Z,19.00
2024-01-26T08:23:16.229Z,19.00
2024-01-26T08:25:44.534Z,19.00
2024-01-26T08:28:14.221Z,19.00
2024-01-26T08:30:43.418Z,19.00
2024-01-26T08:33:11.601Z,19.00
2024-01-26T08:35:39.819Z,18.90
2024-01-26T08:38:07.916Z,18.90
2024-01-26T08:40:35.880Z,18.90
2024-01-26T08:43:03.894Z,18.90
2024-01-26T08:45:33.318Z,18.90
2024-01-26T08:48:01.376Z,18.80
2024-01-26T08:50:29.414Z,18.80
2024-01-26T08:52:57.396Z,18.80
2024-01-26T08:55:25.441Z,18.80
2024-01-26T08:57:53.404Z,18.80
2024-01-26T09:00:22.170Z,18.80
2024-01-26T09:02:51.571Z,18.80
2024-01-26T09:05:19.586Z,18.80
2024-01-26T09:07:47.648Z,18.80
2024-01-26T09:10:18.411Z,18.70
2024-01-26T09:12:47.499Z,18.70
2024-01-26T09:15:15.758Z,18.70
2024-01-26T09:17:43.910Z,18.70
2024-01-26T09:20:14.346Z,18.70
2024-01-26T09:22:42.747Z,18.70
2024-01-26T09:25:10.958Z,18.70
2024-01-26T09:27:39.056Z,18.70
2024-01-26T09:30:08.306Z,18.70
2024-01-26T09:32:36.598Z,18.70
2024-01-26T09:35:05.211Z,18.70
2024-01-26T09:37:34.647Z,18.70
2024-01-26T09:40:02.645Z,18.70
2024-01-26T09:42:30.836Z,18.80
2024-01-26T09:44:58.871Z,18.80
2024-01-26T09:47:28.363Z,18.80
2024-01-26T09:49:58.052Z,18.80
2024-01-26T09:52:26.134Z,18.80
2024-01-26T09:54:57.126Z,18.80
2024-01-26T09:57:25.539Z,18.80
2024-01-26T09:59:54.939Z,18.80
2024-01-26T10:02:24.204Z,18.80
2024-01-26T10:04:52.292Z,18.80
2024-01-26T10:07:20.324Z,18.80
2024-01-26T10:09:48.271Z,18.80
2024-01-26T10:12:17.664Z,18.80
2024-01-26T10:14:45.682Z,18.80
2024-01-26T10:17:19.413Z,18.80
2024-01-26T10:19:47.490Z,18.80
2024-01-26T10:22:16.442Z,18.80
2024-01-26T10:24:45.426Z,18.80
2024-01-26T10:27:14.552Z,18.80
2024-01-26T10:29:45.430Z,18.70
2024-01-26T10:32:16.128Z,18.70
2024-01-26T10:34:48.230Z,18.70
2024-01-26T10:37:21.848Z,18.70
2024-01-26T10:39:51.783Z,18.70
2024-01-26T10:42:21.650Z,18.70
2024-01-26T10:44:52.718Z,18.60
2024-01-26T10:47:21.705Z,18.60
2024-01-26T10:49:50.772Z,18.60
2024-01-26T10:52:20.863Z,18.60
2024-01-26T10:54:51.739Z,18.60
2024-01-26T10:57:21.531Z,18.60
2024-01-26T10:59:51.647Z,18.60
2024-01-26T11:02:25.927Z,18.60
2024-01-26T11:04:54.853Z,18.60
2024-01-26T11:07:23.014Z,18.60
2024-01-26T11:09:52.788Z,18.60
2024-01-26T11:12:26.310Z,18.60
2024-01-26T11:15:10.185Z,18.50
2024-01-26T11:17:46.486Z,18.60
2024-01-26T11:20:19.663Z,18.50
2024-01-26T11:22:47.876Z,18.50
2024-01-26T11:25:23.253Z,18.50
2024-01-26T11:28:00.176Z,18.50
2024-01-26T11:30:30.114Z,18.50
2024-01-26T11:32:58.737Z,18.50
2024-01-26T11:35:27.226Z,18.50
2024-01-26T11:37:57.190Z,18.50
2024-01-26T11:40:25.729Z,18.50
2024-01-26T11:42:54.154Z,18.50
2024-01-26T11:45:42.647Z,18.50
2024-01-26T11:48:11.942Z,18.50
2024-01-26T11:50:42.420Z,18.40
2024-01-26T11:53:11.042Z,18.40
2024-01-26T11:55:39.805Z,18.40
2024-01-26T11:58:09.839Z,18.40
2024-01-26T12:00:39.838Z,18.40
2024-01-26T12:03:09.826Z,18.40
2024-01-26T12:05:39.323Z,18.40
2024-01-26T12:08:08.767Z,18.40
2024-01-26T12:10:38.011Z,18.40
2024-01-26T12:13:09.918Z,18.30
2024-01-26T12:15:42.022Z,18.40
2024-01-26T12:18:13.267Z,18.30
2024-01-26T12:20:42.530Z,18.30
2024-01-26T12:23:18.204Z,18.40
2024-01-26T12:25:46.428Z,18.40
2024-01-26T12:28:16.446Z,18.40
2024-01-26T12:30:47.499Z,18.30
2024-01-26T12:33:17.149Z,18.30
2024-01-26T12:35:48.694Z,18.40
2024-01-26T12:38:17.860Z,18.30
2024-01-26T12:40:46.232Z,18.30
2024-01-26T12:43:14.484Z,18.30
2024-01-26T12:45:42.673Z,18.30
2024-01-26T12:48:12.108Z,18.30
2024-01-26T12:50:40.285Z,18.30
2024-01-26T12:53:09.694Z,18.30
2024-01-26T12:55:37.663Z,18.30
2024-01-26T12:58:05.865Z,18.30
2024-01-26T13:00:33.893Z,18.30
2024-01-26T13:03:03.504Z,18.30
2024-01-26T13:05:32.891Z,18.30
2024-01-26T13:08:00.984Z,18.30
2024-01-26T13:10:28.937Z,18.30
2024-01-26T13:12:56.904Z,18.20
2024-01-26T13:15:24.924Z,18.20
2024-01-26T13:17:53.641Z,18.20
2024-01-26T13:20:22.015Z,18.20
2024-01-26T13:22:51.479Z,18.20
2024-01-26T13:25:19.613Z,18.20
2024-01-26T13:27:48.369Z,18.20
2024-01-26T13:30:17.305Z,18.20
2024-01-26T13:32:47.902Z,18.20
2024-01-26T13:35:16.131Z,18.20
2024-01-26T13:37:44.055Z,18.20
2024-01-26T13:40:13.973Z,18.20
2024-01-26T13:42:43.039Z,18.20
2024-01-26T13:45:13.467Z,18.20
2024-01-26T13:47:46.317Z,18.20
2024-01-26T13:50:17.434Z,18.20
2024-01-26T13:52:45.591Z,18.20
2024-01-26T13:55:16.428Z,18.10
2024-01-26T13:57:44.620Z,18.20
2024-01-26T14:00:21.323Z,18.10
2024-01-26T14:02:51.763Z,18.10
2024-01-26T14:05:20.274Z,18.10
2024-01-26T14:07:48.816Z,18.10
2024-01-26T14:10:19.292Z,18.10
2024-01-26T14:12:47.350Z,18.10
2024-01-26T14:15:15.841Z,18.10
2024-01-26T14:17:44.483Z,18.10
2024-01-26T14:20:13.248Z,18.10
2024-01-26T14:22:41.346Z,18.20
2024-01-26T14:25:11.096Z,18.10
2024-01-26T14:27:40.573Z,18.10
2024-01-26T14:30:12.329Z,18.10
2024-01-26T14:32:41.038Z,18.10
2024-01-26T14:35:11.820Z,18.10
2024-01-26T14:37:41.507Z,18.10
2024-01-26T14:40:13.330Z,18.00
2024-01-26T14:42:42.998Z,18.10
2024-01-26T14:45:12.294Z,18.10
2024-01-26T14:47:40.988Z,18.10
2024-01-26T14:50:10.725Z,18.10
2024-01-26T14:52:40.166Z,18.00
2024-01-26T14:55:09.807Z,18.00
2024-01-26T14:57:39.466Z,18.10
2024-01-26T15:00:11.289Z,18.00
2024-01-26T15:02:40.008Z,18.00
2024-01-26T15:05:10.321Z,18.00
2024-01-26T15:07:42.979Z,18.00
2024-01-26T15:10:13.945Z,18.00
2024-01-26T15:12:41.973Z,18.00
2024-01-26T15:15:12.752Z,18.00
2024-01-26T15:17:42.684Z,18.00
2024-01-26T15:20:12.026Z,17.90
2024-01-26T15:22:40.238Z,18.00
2024-01-26T15:25:08.780Z,17.90
2024-01-26T15:27:36.759Z,17.90
2024-01-26T15:30:05.381Z,17.90
2024-01-26T15:32:34.860Z,17.90
2024-01-26T15:35:03.928Z,17.90
2024-01-26T15:37:31.966Z,17.90
2024-01-26T15:40:00.026Z,17.90
2024-01-26T15:42:28.124Z,17.90
2024-01-26T15:44:57.470Z,17.90
2024-01-26T15:47:25.510Z,17.90
2024-01-26T15:49:54.940Z,17.90
2024-01-26T15:52:29.415Z,17.90
2024-01-26T15:54:59.423Z,17.90
2024-01-26T15:57:27.581Z,17.80
2024-01-26T15:59:56.320Z,17.90
2024-01-26T16:02:24.740Z,17.80
2024-01-26T16:04:55.001Z,17.90
2024-01-26T16:07:23.001Z,17.80
2024-01-26T16:09:52.750Z,17.80
2024-01-26T16:12:20.716Z,17.80
2024-01-26T16:14:48.900Z,17.80
2024-01-26T16:17:19.151Z,17.80
2024-01-26T16:19:47.694Z,17.80
2024-01-26T16:22:17.287Z,17.80
2024-01-26T16:24:45.666Z,17.80
2024-01-26T16:27:13.762Z,17.80
2024-01-26T16:29:41.783Z,17.80
2024-01-26T16:32:09.764Z,17.80
2024-01-26T16:34:37.845Z,17.80
2024-01-26T16:37:05.931Z,17.70
2024-01-26T16:39:37.576Z,17.70
2024-01-26T16:42:06.388Z,17.70
2024-01-26T16:44:34.397Z,17.70
2024-01-26T16:47:02.540Z,17.70
2024-01-26T16:49:30.719Z,17.70
2024-01-26T16:52:02.940Z,17.70
2024-01-26T16:54:31.948Z,17.70
2024-01-26T16:57:01.682Z,17.70
2024-01-26T16:59:31.249Z,17.70
2024-01-26T17:01:59.243Z,17.70
2024-01-26T17:04:27.366Z,17.70
2024-01-26T17:06:55.634Z,17.70
2024-01-26T17:09:23.714Z,17.70
2024-01-26T17:11:51.821Z,17.70
2024-01-26T17:14:21.356Z,17.70
2024-01-26T17:16:49.534Z,17.70
2024-01-26T17:19:17.580Z,17.70
2024-01-26T17:21:46.605Z,17.60
2024-01-26T17:24:14.729Z,17.70
2024-01-26T17:26:43.103Z,17.70
2024-01-26T17:29:11.260Z,17.70
2024-01-26T17:31:40.622Z,17.70
2024-01-26T17:34:08.958Z,17.70
2024-01-26T17:36:37.702Z,17.70
2024-01-26T17:39:05.795Z,17.70
2024-01-26T17:41:33.832Z,17.60
2024-01-26T17:44:02.012Z,17.60
2024-01-26T17:46:33.304Z,17.70
2024-01-26T17:49:10.105Z,17.60
2024-01-26T17:51:38.149Z,17.60
2024-01-26T17:54:06.531Z,17.60
2024-01-26T17:56:34.798Z,17.60
2024-01-26T17:59:03.104Z,17.60
2024-01-26T18:01:31.153Z,17.60
2024-01-26T18:03:59.800Z,17.60
2024-01-26T18:06:30.089Z,17.60
2024-01-26T18:08:58.160Z,17.50
2024-01-26T18:11:26.195Z,17.50
2024-01-26T18:13:54.139Z,17.50
2024-01-26T18:16:22.199Z,17.50
2024-01-26T18:18:52.903Z,17.50
2024-01-26T18:21:21.875Z,17.50
2024-01-26T18:23:51.602Z,17.50
2024-01-26T18:26:19.645Z,17.50
2024-01-26T18:28:47.647Z,17.50
2024-01-26T18:31:17.574Z,17.50
2024-01-26T18:33:46.557Z,17.50
2024-01-26T18:36:14.700Z,17.50
2024-01-26T18:38:44.819Z,17.50
2024-01-26T18:41:23.735Z,17.50
2024-01-26T18:43:54.137Z,17.50
2024-01-26T18:46:23.515Z,17.50
2024-01-26T18:48:51.979Z,17.50
2024-01-26T18:51:20.847Z,17.50
2024-01-26T18:53:48.993Z,17.50
2024-01-26T18:56:18.221Z,17.50
2024-01-26T18:58:47.632Z,17.40
2024-01-26T19:01:16.959Z,17.40
2024-01-26T19:03:47.457Z,17.40
2024-01-26T19:06:15.804Z,17.40
2024-01-26T19:08:44.533Z,17.40
2024-01-26T19:11:13.494Z,17.50
2024-01-26T19:13:43.352Z,17.40
2024-01-26T19:16:16.175Z,17.40
2024-01-26T19:18:50.367Z,17.40
2024-01-26T19:21:18.733Z,17.40
2024-01-26T19:23:46.904Z,17.40
2024-01-26T19:26:15.203Z,17.40
2024-01-26T19:28:43.233Z,17.40
2024-01-26T19:31:11.240Z,17.40
2024-01-26T19:33:40.803Z,17.40
2024-01-26T19:36:09.888Z,17.40
2024-01-26T19:38:37.939Z,17.40
2024-01-26T19:41:06.182Z,17.40
2024-01-26T19:43:35.358Z,17.40
2024-01-26T19:46:03.384Z,17.40
2024-01-26T19:48:31.680Z,17.40
2024-01-26T19:51:04.245Z,17.40
2024-01-26T19:53:32.775Z,17.40
2024-01-26T19:56:00.936Z,17.40
2024-01-26T19:58:29.349Z,17.40
2024-01-26T20:00:57.366Z,17.40
2024-01-26T20:03:25.372Z,17.40
2024-01-26T20:05:54.303Z,17.40
2024-01-26T20:08:25.044Z,17.40
2024-01-26T20:10:53.042Z,17.40
2024-01-26T20:13:23.359Z,17.40
2024-01-26T20:15:51.657Z,17.40
2024-01-26T20:18:19.795Z,17.40
2024-01-26T20:20:48.195Z,17.40
2024-01-26T20:23:17.233Z,17.40
2024-01-26T20:25:47.035Z,17.40
2024-01-26T20:28:15.059Z,17.30
2024-01-26T20:30:43.068Z,17.40
2024-01-26T20:33:11.146Z,17.40
2024-01-26T20:35:39.700Z,17.40
2024-01-26T20:38:07.647Z,17.40
2024-01-26T20:40:35.603Z,17.40
2024-01-26T20:43:07.797Z,17.40
2024-01-26T20:45:40.682Z,17.40
2024-01-26T20:48:10.119Z,17.40
2024-01-26T20:50:38.730Z,17.40
2024-01-26T20:53:07.154Z,17.40
2024-01-26T20:55:35.243Z,17.50
2024-01-26T20:58:04.790Z,17.50
2024-01-26T21:00:32.983Z,17.50
2024-01-26T21:03:01.461Z,17.60
2024-01-26T21:05:32.748Z,17.60
2024-01-26T21:08:01.095Z,17.60
2024-01-26T21:10:29.927Z,17.60
2024-01-26T21:12:57.936Z,17.70
2024-01-26T21:15:27.535Z,17.70
2024-01-26T21:17:55.794Z,17.60
2024-01-26T21:20:23.922Z,17.70
2024-01-26T21:22:52.775Z,17.70
2024-01-26T21:25:21.073Z,17.80
2024-01-26T21:27:49.999Z,17.80
2024-01-26T21:30:18.403Z,17.80
2024-01-26T21:32:48.197Z,17.80
2024-01-26T21:35:16.453Z,17.90
2024-01-26T21:37:45.474Z,17.80
2024-01-26T21:40:15.134Z,17.90
2024-01-26T21:42:43.679Z,17.90
2024-01-26T21:45:12.569Z,17.90
2024-01-26T21:47:42.499Z,17.90
2024-01-26T21:50:13.743Z,18.00
2024-01-26T21:52:42.836Z,17.90
2024-01-26T21:55:11.866Z,17.90
2024-01-26T21:57:39.897Z,18.00
2024-01-26T22:00:09.960Z,18.00
2024-01-26T22:02:38.072Z,18.00
2024-01-26T22:05:07.866Z,18.00
2024-01-26T22:07:37.304Z,18.00
2024-01-26T22:10:06.228Z,18.00
2024-01-26T22:12:34.440Z,18.00
2024-01-26T22:15:03.683Z,18.00
2024-01-26T22:17:32.835Z,18.10
2024-01-26T22:20:01.002Z,18.10
2024-01-26T22:22:29.284Z,18.10
2024-01-26T22:24:58.701Z,18.10
2024-01-26T22:27:26.725Z,18.10
2024-01-26T22:29:56.807Z,18.10
2024-01-26T22:32:24.973Z,18.20
2024-01-26T22:34:53.319Z,18.10
2024-01-26T22:37:21.565Z,18.10
2024-01-26T22:39:49.602Z,18.20
2024-01-26T22:42:19.031Z,18.20
2024-01-26T22:44:47.058Z,18.20
2024-01-26T22:47:15.044Z,18.20
2024-01-26T22:49:43.475Z,18.20
2024-01-26T22:52:11.866Z,18.20
2024-01-26T22:54:40.057Z,18.20
2024-01-26T22:57:08.169Z,18.20
2024-01-26T22:59:37.539Z,18.20
2024-01-26T23:02:06.281Z,18.20
2024-01-26T23:04:34.419Z,18.10
2024-01-26T23:07:04.094Z,18.20
2024-01-26T23:09:32.259Z,18.10
2024-01-26T23:12:00.500Z,18.10
2024-01-26T23:14:28.503Z,18.20
2024-01-26T23:16:57.853Z,18.10
2024-01-26T23:19:31.084Z,18.20
2024-01-26T23:22:00.180Z,18.10
2024-01-26T23:24:28.298Z,18.10
2024-01-26T23:26:56.514Z,18.10
2024-01-26T23:29:24.467Z,18.10
2024-01-26T23:31:52.457Z,18.10
2024-01-26T23:34:22.023Z,18.10
2024-01-26T23:36:50.124Z,18.10
2024-01-26T23:39:18.141Z,18.10
2024-01-26T23:41:46.228Z,18.00
2024-01-26T23:44:14.289Z,18.10
2024-01-26T23:46:42.238Z,18.00
2024-01-26T23:49:10.380Z,18.00
2024-01-26T23:51:39.955Z,18.00
2024-01-26T23:54:07.966Z,18.00
2024-01-26T23:56:35.948Z,18.00
2024-01-26T23:59:03.899Z,18.00
